createdAt,value
2022-12-17T00:02:18.771Z,19.00
2022-12-17T00:05:05.804Z,18.50
2022-12-17T00:07:51.628Z,20.27
2022-12-17T00:10:52.129Z,21.20
2022-12-17T00:13:38.734Z,21.48
2022-12-17T00:16:25.666Z,23.65
2022-12-17T00:19:11.623Z,20.30
2022-12-17T00:21:58.754Z,19.98
2022-12-17T00:24:44.395Z,21.38
2022-12-17T00:27:30.123Z,20.50
2022-12-17T00:30:15.599Z,21.88
2022-12-17T00:33:01.719Z,20.98
2022-12-17T00:35:47.666Z,20.00
2022-12-17T00:38:36.032Z,22.10
2022-12-17T00:41:36.477Z,20.42
2022-12-17T00:44:22.456Z,17.02
2022-12-17T00:47:08.279Z,21.83
2022-12-17T00:49:56.213Z,19.52
2022-12-17T00:52:43.828Z,21.85
2022-12-17T00:55:45.373Z,20.67
2022-12-17T00:58:30.923Z,21.67
2022-12-17T01:01:17.563Z,21.00
2022-12-17T01:04:03.345Z,20.50
2022-12-17T01:06:54.264Z,16.70
2022-12-17T01:09:42.296Z,20.35
2022-12-17T01:12:29.467Z,20.67
2022-12-17T01:15:15.101Z,20.38
2022-12-17T01:18:00.883Z,20.90
2022-12-17T01:20:46.336Z,20.30
2022-12-17T01:23:33.159Z,20.27
2022-12-17T01:26:21.194Z,20.83
2022-12-17T01:29:08.338Z,18.90
2022-12-17T01:31:53.877Z,19.35
2022-12-17T01:34:39.735Z,19.55
2022-12-17T01:37:25.356Z,20.65
2022-12-17T01:40:12.019Z,18.67
2022-12-17T01:42:59.221Z,21.30
2022-12-17T01:45:51.585Z,17.52
2022-12-17T01:48:45.667Z,19.33
2022-12-17T01:51:33.212Z,19.52
2022-12-17T01:54:21.001Z,19.30
2022-12-17T01:57:06.817Z,21.40
2022-12-17T01:59:59.981Z,20.15
2022-12-17T02:02:47.014Z,23.30
2022-12-17T02:05:33.390Z,20.10
2022-12-17T02:08:23.041Z,20.92
2022-12-17T02:11:16.075Z,21.40
2022-12-17T02:14:11.018Z,21.05
2022-12-17T02:17:04.396Z,19.48
2022-12-17T02:20:11.386Z,18.30
2022-12-17T02:23:06.403Z,20.17
2022-12-17T02:26:01.300Z,21.35
2022-12-17T02:28:49.720Z,19.83
2022-12-17T02:31:35.740Z,18.55
2022-12-17T02:34:22.518Z,19.02
2022-12-17T02:37:09.270Z,19.77
2022-12-17T02:39:56.960Z,20.15
2022-12-17T02:42:46.424Z,18.65
2022-12-17T02:45:34.706Z,17.63
2022-12-17T02:48:21.376Z,20.23
2022-12-17T02:51:07.245Z,19.33
2022-12-17T02:53:53.685Z,20.15
2022-12-17T02:56:41.431Z,16.67
2022-12-17T02:59:27.714Z,18.48
2022-12-17T03:02:16.303Z,21.10
2022-12-17T03:05:15.209Z,18.88
2022-12-17T03:08:09.362Z,18.15
2022-12-17T03:10:54.941Z,18.35
2022-12-17T03:13:41.996Z,19.38
2022-12-17T03:16:34.225Z,19.42
2022-12-17T03:19:24.319Z,21.08
2022-12-17T03:22:08.936Z,21.45
2022-12-17T03:24:57.310Z,22.92
2022-12-17T03:27:42.950Z,19.20
2022-12-17T03:30:34.548Z,17.23
2022-12-17T03:33:21.803Z,22.92
2022-12-17T03:36:11.536Z,19.40
2022-12-17T03:38:57.799Z,21.00
2022-12-17T03:41:43.942Z,19.38
2022-12-17T03:44:30.321Z,19.10
2022-12-17T03:47:15.877Z,20.00
2022-12-17T03:49:58.329Z,19.92
2022-12-17T03:52:45.534Z,16.27
2022-12-17T03:55:31.119Z,24.35
2022-12-17T03:58:16.608Z,19.50
2022-12-17T04:01:02.888Z,19.98
2022-12-17T04:03:49.099Z,24.27
2022-12-17T04:06:34.995Z,24.33
2022-12-17T04:09:31.051Z,20.42
2022-12-17T04:12:17.341Z,19.75
2022-12-17T04:15:03.571Z,20.75
2022-12-17T04:17:49.981Z,20.17
2022-12-17T04:20:35.925Z,20.40
2022-12-17T04:23:21.887Z,24.70
2022-12-17T04:26:09.277Z,20.90
2022-12-17T04:28:55.407Z,21.23
2022-12-17T04:31:41.673Z,19.50
2022-12-17T04:34:27.204Z,21.58
2022-12-17T04:37:13.666Z,22.10
2022-12-17T04:40:04.924Z,19.33
2022-12-17T04:42:51.785Z,21.98
2022-12-17T04:45:40.385Z,19.38
2022-12-17T04:48:27.734Z,19.50
2022-12-17T04:51:13.964Z,20.05
2022-12-17T04:54:08.703Z,21.17
2022-12-17T04:56:54.731Z,18.67
2022-12-17T04:59:42.073Z,22.67
2022-12-17T05:02:27.662Z,20.40
2022-12-17T05:05:13.811Z,19.10
2022-12-17T05:07:59.785Z,20.33
2022-12-17T05:10:45.761Z,21.17
2022-12-17T05:13:31.952Z,20.15
2022-12-17T05:16:18.939Z,24.02
2022-12-17T05:19:04.881Z,22.20
2022-12-17T05:21:53.529Z,20.58
2022-12-17T05:24:39.886Z,20.83
2022-12-17T05:27:25.798Z,24.63
2022-12-17T05:30:11.730Z,24.45
2022-12-17T05:32:59.002Z,22.27
2022-12-17T05:35:44.982Z,21.55
2022-12-17T05:38:31.382Z,25.00
2022-12-17T05:41:17.655Z,19.70
2022-12-17T05:44:03.810Z,22.10
2022-12-17T05:46:49.983Z,22.33
2022-12-17T05:49:36.886Z,21.35
2022-12-17T05:52:28.498Z,21.52
2022-12-17T05:55:14.626Z,21.80
2022-12-17T05:58:00.811Z,22.60
2022-12-17T06:00:58.726Z,22.17
2022-12-17T06:03:44.578Z,21.38
2022-12-17T06:06:31.536Z,20.70
2022-12-17T06:09:17.486Z,23.60
2022-12-17T06:12:03.864Z,22.75
2022-12-17T06:14:46.235Z,17.80
2022-12-17T06:17:31.875Z,20.50
2022-12-17T06:20:17.866Z,19.90
2022-12-17T06:23:05.589Z,24.17
2022-12-17T06:25:51.647Z,23.70
2022-12-17T06:28:37.574Z,22.75
2022-12-17T06:31:23.637Z,20.45
2022-12-17T06:34:09.757Z,20.85
2022-12-17T06:36:55.846Z,20.65
2022-12-17T06:39:43.249Z,23.23
2022-12-17T06:42:29.419Z,21.48
2022-12-17T06:45:15.286Z,21.70
2022-12-17T06:48:01.240Z,21.55
2022-12-17T06:50:58.614Z,19.90
2022-12-17T06:53:44.886Z,22.23
2022-12-17T06:56:31.964Z,23.33
2022-12-17T06:59:17.944Z,19.95
2022-12-17T07:02:04.386Z,22.38
2022-12-17T07:04:50.401Z,24.85
2022-12-17T07:07:36.746Z,22.30
2022-12-17T07:10:22.905Z,24.15
2022-12-17T07:13:09.691Z,22.65
2022-12-17T07:15:52.059Z,23.05
2022-12-17T07:18:38.241Z,21.40
2022-12-17T07:21:24.717Z,20.27
2022-12-17T07:24:11.179Z,19.77
2022-12-17T07:26:57.212Z,17.73
2022-12-17T07:29:44.413Z,21.13
2022-12-17T07:32:30.767Z,23.77
2022-12-17T07:35:16.789Z,20.23
2022-12-17T07:38:02.977Z,20.80
2022-12-17T07:40:49.000Z,22.58
2022-12-17T07:43:36.095Z,21.92
2022-12-17T07:46:25.595Z,22.30
2022-12-17T07:49:11.670Z,21.88
2022-12-17T07:51:57.544Z,19.55
2022-12-17T07:54:48.794Z,24.30
2022-12-17T07:57:35.072Z,21.67
2022-12-17T08:00:21.339Z,22.92
2022-12-17T08:03:08.467Z,23.15
2022-12-17T08:05:54.698Z,21.45
2022-12-17T08:08:40.842Z,22.02
2022-12-17T08:11:26.394Z,22.25
2022-12-17T08:14:12.785Z,22.63
2022-12-17T08:16:58.301Z,20.75
2022-12-17T08:19:45.371Z,22.90
2022-12-17T08:22:31.651Z,21.02
2022-12-17T08:25:17.821Z,24.35
2022-12-17T08:28:07.399Z,20.77
2022-12-17T08:30:56.475Z,24.30
2022-12-17T08:33:42.670Z,20.80
2022-12-17T08:36:37.924Z,24.00
2022-12-17T08:39:23.945Z,21.92
2022-12-17T08:42:09.962Z,21.23
2022-12-17T08:44:55.946Z,23.70
2022-12-17T08:47:43.224Z,21.40
2022-12-17T08:59:02.668Z,22.90
2022-12-17T09:01:50.580Z,29.30
2022-12-17T09:04:36.547Z,21.15
2022-12-17T09:07:22.615Z,23.13
2022-12-17T09:10:08.585Z,21.83
2022-12-17T09:13:08.588Z,22.20
2022-12-17T09:15:54.735Z,22.33
2022-12-17T09:18:42.419Z,33.25
2022-12-17T09:21:28.513Z,29.75
2022-12-17T09:24:14.692Z,26.75
2022-12-17T09:27:00.782Z,28.70
2022-12-17T09:29:46.756Z,27.98
2022-12-17T09:32:32.814Z,28.25
2022-12-17T09:35:20.424Z,26.77
2022-12-17T09:38:10.354Z,26.65
2022-12-17T09:40:56.599Z,24.38
2022-12-17T09:43:47.531Z,27.02
2022-12-17T09:46:36.688Z,28.47
2022-12-17T09:49:23.966Z,22.73
2022-12-17T09:52:11.740Z,21.98
2022-12-17T09:55:01.032Z,23.40
2022-12-17T09:57:49.346Z,29.15
2022-12-17T10:00:36.564Z,25.52
2022-12-17T10:03:23.395Z,26.83
2022-12-17T10:06:10.160Z,25.40
2022-12-17T10:08:57.710Z,24.58
2022-12-17T10:11:46.037Z,23.83
2022-12-17T10:14:35.172Z,27.15
2022-12-17T10:17:21.588Z,27.45
2022-12-17T10:20:08.958Z,27.75
2022-12-17T10:23:01.224Z,26.73
2022-12-17T10:25:48.871Z,24.13
2022-12-17T10:28:36.165Z,27.30
2022-12-17T10:31:26.737Z,24.27
2022-12-17T10:34:14.733Z,25.95
2022-12-17T10:37:04.584Z,24.77
2022-12-17T10:39:50.949Z,22.58
2022-12-17T10:42:43.214Z,25.45
2022-12-17T10:45:40.929Z,27.15
2022-12-17T10:48:36.931Z,24.70
2022-12-17T10:51:23.320Z,24.00
2022-12-17T10:54:11.340Z,26.33
2022-12-17T10:56:58.443Z,23.27
2022-12-17T10:59:50.806Z,24.15
2022-12-17T11:02:43.750Z,26.33
2022-12-17T11:05:32.798Z,25.15
2022-12-17T11:08:19.660Z,25.55
2022-12-17T11:11:14.851Z,22.83
2022-12-17T11:14:02.188Z,24.15
2022-12-17T11:16:53.693Z,24.23
2022-12-17T11:19:52.993Z,25.08
2022-12-17T11:22:45.632Z,24.63
2022-12-17T11:25:47.944Z,25.00
2022-12-17T11:28:39.451Z,24.77
2022-12-17T11:31:48.671Z,23.75
2022-12-17T11:34:40.305Z,26.63
2022-12-17T11:37:33.345Z,23.98
2022-12-17T11:40:29.772Z,24.17
2022-12-17T11:43:21.332Z,24.27
2022-12-17T11:46:14.518Z,25.05
2022-12-17T11:49:04.654Z,24.55
2022-12-17T11:51:57.148Z,25.30
2022-12-17T11:54:46.697Z,24.58
2022-12-17T11:57:38.162Z,24.63
2022-12-17T12:00:26.502Z,23.75
2022-12-17T12:03:15.086Z,25.45
2022-12-17T12:06:04.433Z,24.25
2022-12-17T12:08:55.123Z,23.50
2022-12-17T12:11:47.410Z,24.60
2022-12-17T12:14:39.189Z,24.33
2022-12-17T12:20:14.381Z,22.77
2022-12-17T12:23:03.484Z,29.30
2022-12-17T12:25:53.664Z,29.45
2022-12-17T12:28:59.136Z,26.70
2022-12-17T12:31:49.535Z,27.08
2022-12-17T12:34:37.940Z,25.77
2022-12-17T12:37:25.469Z,28.60
2022-12-17T12:40:15.453Z,27.73
2022-12-17T12:43:06.882Z,28.38
2022-12-17T12:45:57.308Z,26.77
2022-12-17T12:48:57.430Z,25.50
2022-12-17T12:51:45.467Z,27.88
2022-12-17T12:54:42.633Z,25.85
2022-12-17T12:57:43.610Z,27.98
2022-12-17T13:00:42.843Z,28.43
2022-12-17T13:03:39.631Z,28.27
2022-12-17T13:06:08.666Z,29.67
2022-12-17T13:08:38.055Z,25.73
2022-12-17T13:11:27.805Z,29.00
2022-12-17T13:13:57.770Z,27.55
2022-12-17T13:16:32.000Z,29.60
2022-12-17T13:19:04.332Z,29.42
2022-12-17T13:21:32.893Z,27.67
2022-12-17T13:24:11.511Z,32.53
2022-12-17T13:26:49.161Z,29.88
2022-12-17T13:29:29.101Z,29.95
2022-12-17T13:32:14.144Z,28.95
2022-12-17T13:34:53.620Z,26.98
2022-12-17T13:37:32.573Z,31.85
2022-12-17T13:40:14.162Z,29.48
2022-12-17T13:45:17.055Z,29.75
2022-12-17T13:47:54.858Z,28.48
2022-12-17T13:50:35.147Z,30.70
2022-12-17T13:53:11.375Z,30.33
2022-12-17T13:55:40.399Z,32.35
2022-12-17T13:58:26.783Z,30.23
2022-12-17T14:01:06.544Z,29.83
2022-12-17T14:04:04.303Z,32.08
2022-12-17T14:06:27.012Z,33.92
2022-12-17T14:08:57.521Z,25.88
2022-12-17T14:11:58.713Z,31.77
2022-12-17T14:14:31.790Z,31.02
2022-12-17T14:17:01.214Z,31.83
2022-12-17T14:19:32.870Z,32.58
2022-12-17T14:22:02.412Z,32.50
2022-12-17T14:24:30.954Z,32.92
2022-12-17T14:27:01.258Z,31.52
2022-12-17T14:29:32.649Z,32.47
2022-12-17T14:32:02.591Z,33.83
2022-12-17T14:34:42.489Z,31.63
2022-12-17T14:37:19.645Z,33.30
2022-12-17T14:39:49.168Z,35.03
2022-12-17T14:42:26.757Z,34.53
2022-12-17T14:44:57.111Z,33.33
2022-12-17T14:47:27.197Z,33.72
2022-12-17T14:50:04.341Z,34.72
2022-12-17T14:52:42.731Z,35.83
2022-12-17T14:55:24.960Z,32.13
2022-12-17T14:57:53.918Z,35.05
2022-12-17T15:00:22.717Z,32.38
2022-12-17T15:02:53.281Z,34.80
2022-12-17T15:05:23.393Z,34.50
2022-12-17T15:07:52.431Z,33.58
2022-12-17T15:10:22.337Z,35.20
2022-12-17T15:12:53.068Z,33.90
2022-12-17T15:15:22.024Z,33.25
2022-12-17T15:17:50.667Z,32.40
2022-12-17T15:20:20.416Z,38.35
2022-12-17T15:22:50.324Z,33.88
2022-12-17T15:25:19.983Z,31.17
2022-12-17T15:27:48.476Z,35.42
2022-12-17T15:30:17.433Z,31.38
2022-12-17T15:32:46.390Z,34.75
2022-12-17T15:35:15.375Z,36.70
2022-12-17T15:37:43.864Z,36.92
2022-12-17T15:40:14.163Z,37.22
2022-12-17T15:43:04.660Z,34.08
2022-12-17T15:45:35.174Z,36.28
2022-12-17T15:48:03.674Z,32.50
2022-12-17T15:50:32.277Z,37.35
2022-12-17T15:53:00.752Z,36.10
2022-12-17T15:55:31.128Z,34.25
2022-12-17T15:57:59.761Z,34.70
2022-12-17T16:00:28.241Z,34.42
2022-12-17T16:02:57.040Z,35.25
2022-12-17T16:05:25.871Z,31.98
2022-12-17T16:07:58.863Z,36.83
2022-12-17T16:10:27.408Z,33.63
2022-12-17T16:12:57.277Z,34.45
2022-12-17T16:15:25.890Z,37.03
2022-12-17T16:17:54.540Z,35.97
2022-12-17T16:20:23.281Z,36.78
2022-12-17T16:22:51.793Z,35.47
2022-12-17T16:25:20.408Z,35.60
2022-12-17T16:27:48.898Z,33.40
2022-12-17T16:30:18.821Z,34.72
2022-12-17T16:32:47.371Z,35.20
2022-12-17T16:35:15.835Z,37.53
2022-12-17T16:37:44.362Z,35.15
2022-12-17T16:40:13.468Z,37.38
2022-12-17T16:42:41.980Z,48.00
2022-12-17T16:45:11.180Z,92.72
2022-12-17T16:47:41.071Z,130.65
2022-12-17T16:50:09.550Z,127.95
2022-12-17T16:52:38.102Z,118.55
2022-12-17T16:55:06.927Z,105.18
2022-12-17T16:57:35.486Z,93.32
2022-12-17T17:00:04.477Z,98.00
2022-12-17T17:02:33.591Z,90.47
2022-12-17T17:05:03.910Z,85.10
2022-12-17T17:07:32.425Z,78.47
2022-12-17T17:10:01.027Z,68.75
2022-12-17T17:12:30.238Z,70.13
2022-12-17T17:14:58.722Z,128.07
2022-12-17T17:17:53.995Z,123.70
2022-12-17T17:20:17.588Z,97.75
2022-12-17T17:22:46.113Z,98.00
2022-12-17T17:25:14.663Z,95.63
2022-12-17T17:27:43.213Z,81.97
2022-12-17T17:30:12.465Z,73.28
2022-12-17T17:32:41.055Z,72.93
2022-12-17T17:35:10.005Z,63.70
